Missoula, MT (59803)

11:25 PM MDT on September 04, 2015 (GMT -0600)
Linda Vista | | Change Station
CLOSE
Current Station
Personal Weather Station
Location: Missoula, MT
Elevation: 3353 ft
Nearby Weather Stations

Elev 3353 ft 46.81 °N, 114.06 °W | Updated 7 minutes ago

Mostly Cloudy
Mostly Cloudy
56.9 °F
Feels Like 56.9 °F
N
2.0
Wind Variable Wind from SSE
Gusts 3.6 mph

Today
High -- | Low -- °F
--% Chance of Precip.
Yesterday
High -- | Low -- °F
Precip. -- in
6:59 AM 8:09 PM
Waning Gibbous, 52% visible
Pressure 29.87 in
Visibility 10.0 miles
Clouds Overcast 6000 ft
Dew Point 44 °F
Humidity 62%
Rainfall 0.00 in
Snow Depth Not available.
UV 0 out of 12
Pollen 4.50 out of 12
Air Quality Not available.
Flu Activity Not available.
METAR KMSO 050453Z AUTO VRB03KT 10SM OVC060 14/06 A2987 RMK AO2 SLP113 T01390056
Pressure 29.87 in
Visibility 10.0 miles
Clouds Overcast 6000 ft
Dew Point 44 °F
Humidity 62%
Rainfall 0.00 in
Snow Depth Not available.
UV 0 out of 12
Pollen 4.50 out of 12
Air Quality Not available.
Flu Activity Not available.
METAR KMSO 050453Z AUTO VRB03KT 10SM OVC060 14/06 A2987 RMK AO2 SLP113 T01390056

10-Day Weather Forecast

×

Almanac

Astronomy

Sep. 04, 2015 Rise Set
Actual Time
Civil Twilight
Nautical Twilight
Astronomical Twilight
Moon
Length of Visible Light
Length of Day
Tomorrow will be .
, % of the Moon is Illuminated

Today's Extremes

State Highs State Lows

Community

WunderPhotos

Upload Photos

1,852,427 photos uploaded!

WunderBlogs® & News

Nearby

Air Quality

  Air Quality AQ Index Pollutant
Not available.

Snow Depth

Station Depth Elevation

Earthquake Activity

City Distance Mag. Time & Date
Minimum magnitude displayed is 2.5.

Coastal Water Temperatures

Place Temperature

Stations

Nearby Weather Stations

Station Location Temp. Windchill Dew Point Humidity Wind Precip. Elev Updated Type